Consulta los datos en tiempo real de la estación municipal de Cànoves i Samalús
| Hora UTC | 05:05 |
|---|---|
| Temperatura | 20.5 ºC |
| Humedad | 59.9 % |
| Presión | 1019.7 hPa |
| Pluja | 0.0 mm |
| Velocidad viento | 5.4 km/h |
| Dirección viento | NNW |
| Radiación solar | 0.5 W/m² |
| Temperatura (ºC) | Humedad (%) | Presión (hPa) | Velocidad viento (km/h) | Precipitación (mm) | Radiación solar (W/m²) | |||||||||||||
|---|---|---|---|---|---|---|---|---|---|---|---|---|---|---|---|---|---|---|
| Hora UTC | Aire | Humedad | Presión | Vel. | Dir. | Vel. Max | Dir. | Intent. máx 5 min. | Rad. Sol. | |||||||||
| 00:05 | 22.2 | 55.1 | 1020.5 | 5.6 | NNW | 5.6 | N | 0.0 | 0.1 | |||||||||
| 00:10 | 22.0 | 55.8 | 1020.5 | 5.4 | NNW | 6.4 | NNW | 0.0 | 0.1 | |||||||||
| 00:15 | 22.0 | 56.3 | 1020.5 | 4.8 | NNW | 6.0 | NW | 0.0 | 0.1 | |||||||||
| 00:20 | 21.9 | 57.0 | 1020.5 | 4.5 | NNW | 6.0 | NNW | 0.0 | 0.1 | |||||||||
| 00:25 | 21.9 | 57.0 | 1020.5 | 3.6 | NNW | 5.6 | NNW | 0.0 | 0.1 | |||||||||
| 00:30 | 21.9 | 55.9 | 1020.4 | 3.0 | NW | 4.6 | NNW | 0.0 | 0.1 | |||||||||
| 00:35 | 21.9 | 54.9 | 1020.4 | 0.9 | NW | 2.8 | N | 0.0 | 0.1 | |||||||||
| 00:40 | 22.0 | 54.6 | 1020.4 | 1.3 | NNW | 5.3 | WNW | 0.0 | 0.1 | |||||||||
| 00:45 | 22.2 | 54.3 | 1020.4 | 1.3 | NW | 3.9 | NNW | 0.0 | 0.1 | |||||||||
| 00:50 | 22.2 | 54.0 | 1020.3 | 1.5 | NNW | 4.6 | N | 0.0 | 0.1 | |||||||||
| 00:55 | 22.3 | 54.4 | 1020.3 | 3.6 | NNW | 4.9 | N | 0.0 | 0.1 | |||||||||
| 01:00 | 22.3 | 54.4 | 1020.3 | 3.4 | NNW | 4.6 | N | 0.0 | 0.1 | |||||||||
| 01:05 | 22.3 | 54.4 | 1020.2 | 3.8 | NNW | 4.9 | NNW | 0.0 | 0.1 | |||||||||
| 01:10 | 22.2 | 55.3 | 1020.2 | 1.1 | NNW | 3.9 | NNW | 0.0 | 0.1 | |||||||||
| 01:15 | 21.8 | 55.6 | 1020.1 | 1.4 | S | 3.9 | S | 0.0 | 0.1 | |||||||||
| 01:20 | 21.9 | 54.7 | 1020.1 | 1.0 | NNW | 3.2 | NNW | 0.0 | 0.1 | |||||||||
| 01:25 | 21.8 | 55.9 | 1020.1 | 0.6 | W | 2.8 | WNW | 0.0 | 0.1 | |||||||||
| 01:30 | 21.7 | 56.5 | 1020.1 | 2.6 | NW | 6.0 | NNW | 0.0 | 0.1 | |||||||||
| 01:35 | 21.9 | 56.7 | 1020.0 | 2.4 | NNW | 4.2 | N | 0.0 | 0.1 | |||||||||
| 01:40 | 21.8 | 56.9 | 1020.0 | 5.1 | NNW | 7.8 | N | 0.0 | 0.1 | |||||||||
| 01:45 | 22.0 | 53.6 | 1020.0 | 5.5 | NNW | 7.8 | NNW | 0.0 | 0.1 | |||||||||
| 01:50 | 22.0 | 56.0 | 1020.0 | 1.0 | NW | 3.2 | NNW | 0.0 | 0.1 | |||||||||
| 01:55 | 21.4 | 59.2 | 1020.0 | 0.5 | SE | 2.8 | SE | 0.0 | 0.1 | |||||||||
| 02:00 | 20.9 | 58.7 | 1020.0 | 1.5 | NNW | 4.2 | NNW | 0.0 | 0.1 | |||||||||
| 02:05 | 20.9 | 58.6 | 1020.0 | 3.7 | NNW | 4.6 | NNW | 0.0 | 0.1 | |||||||||
| 02:10 | 21.0 | 56.7 | 1019.9 | 3.6 | NW | 5.3 | NNW | 0.0 | 0.1 | |||||||||
| 02:15 | 21.3 | 55.4 | 1019.9 | 5.1 | NNW | 7.1 | NNW | 0.0 | 0.1 | |||||||||
| 02:20 | 21.6 | 53.3 | 1019.9 | 5.1 | NNW | 7.4 | NNW | 0.0 | 0.1 | |||||||||
| 02:25 | 21.8 | 50.9 | 1019.9 | 2.8 | NW | 4.6 | NW | 0.0 | 0.1 | |||||||||
| 02:30 | 22.0 | 51.0 | 1019.8 | 3.2 | NNW | 5.6 | ESE | 0.0 | 0.1 | |||||||||
| 02:35 | 21.4 | 57.4 | 1019.9 | 1.9 | SE | 6.0 | SE | 0.0 | 0.1 | |||||||||
| 02:40 | 21.0 | 56.6 | 1019.9 | 0.9 | SSW | 3.5 | SSW | 0.0 | 0.1 | |||||||||
| 02:45 | 21.0 | 56.6 | 1019.9 | 1.4 | WSW | 3.2 | SSW | 0.0 | 0.1 | |||||||||
| 02:50 | 21.2 | 57.0 | 1019.9 | 2.2 | WNW | 3.2 | WNW | 0.0 | 0.1 | |||||||||
| 02:55 | 21.3 | 57.4 | 1019.9 | 1.5 | NW | 2.8 | NW | 0.0 | 0.1 | |||||||||
| 03:00 | 21.2 | 58.4 | 1019.9 | 1.3 | NW | 4.6 | NW | 0.0 | 0.1 | |||||||||
| 03:05 | 21.2 | 58.7 | 1019.9 | 4.5 | NNW | 6.0 | NNW | 0.0 | 0.1 | |||||||||
| 03:10 | 21.1 | 58.7 | 1019.9 | 1.8 | NNW | 5.3 | NNW | 0.0 | 0.1 | |||||||||
| 03:15 | 20.9 | 59.5 | 1019.9 | 2.1 | NW | 2.8 | NW | 0.0 | 0.1 | |||||||||
| 03:20 | 20.6 | 60.5 | 1019.9 | 2.4 | NNW | 4.6 | NNW | 0.0 | 0.1 | |||||||||
| 03:25 | 20.4 | 61.1 | 1019.8 | 2.4 | NNW | 3.5 | NNW | 0.0 | 0.1 | |||||||||
| 03:30 | 20.3 | 61.9 | 1019.8 | 2.9 | NNW | 4.2 | NNW | 0.0 | 0.1 | |||||||||
| 03:35 | 20.2 | 62.1 | 1019.8 | 1.9 | NNW | 3.5 | NNW | 0.0 | 0.1 | |||||||||
| 03:40 | 20.2 | 62.7 | 1019.8 | 2.5 | N | 3.5 | NNW | 0.0 | 0.1 | |||||||||
| 03:45 | 20.3 | 63.0 | 1019.7 | 3.8 | NNW | 5.6 | NNW | 0.0 | 0.1 | |||||||||
| 03:50 | 20.3 | 62.8 | 1019.7 | 2.1 | N | 4.9 | NNW | 0.0 | 0.1 | |||||||||
| 03:55 | 20.3 | 63.0 | 1019.8 | 3.6 | NNW | 5.3 | NNW | 0.0 | 0.1 | |||||||||
| 04:00 | 20.4 | 63.0 | 1019.8 | 4.1 | NNW | 6.0 | N | 0.0 | 0.1 | |||||||||
| 04:05 | 20.4 | 62.4 | 1019.7 | 4.1 | NW | 5.6 | NNW | 0.0 | 0.1 | |||||||||
| 04:10 | 20.5 | 61.6 | 1019.7 | 4.3 | NNW | 6.0 | NNW | 0.0 | 0.1 | |||||||||
| 04:15 | 20.6 | 61.6 | 1019.7 | 3.5 | NNW | 4.9 | NNW | 0.0 | 0.1 | |||||||||
| 04:20 | 20.6 | 61.9 | 1019.7 | 5.2 | NNW | 6.0 | NNW | 0.0 | 0.1 | |||||||||
| 04:25 | 20.7 | 61.3 | 1019.7 | 4.6 | NNW | 6.4 | N | 0.0 | 0.1 | |||||||||
| 04:30 | 20.7 | 60.5 | 1019.7 | 5.1 | NNW | 8.1 | NNW | 0.0 | 0.1 | |||||||||
| 04:35 | 20.9 | 59.0 | 1019.7 | 4.3 | N | 7.8 | N | 0.0 | 0.1 | |||||||||
| 04:40 | 20.9 | 59.0 | 1019.7 | 5.8 | NNW | 7.8 | NNW | 0.0 | 0.1 | |||||||||
| 04:45 | 20.8 | 58.9 | 1019.7 | 5.0 | NNW | 8.1 | NNW | 0.0 | 0.1 | |||||||||
| 04:50 | 20.7 | 59.1 | 1019.7 | 4.2 | NNW | 7.8 | NNW | 0.0 | 0.1 | |||||||||
| 04:55 | 20.7 | 60.5 | 1019.7 | 4.9 | N | 8.5 | N | 0.0 | 0.2 | |||||||||
| 05:00 | 20.6 | 60.0 | 1019.7 | 4.9 | NNW | 7.1 | N | 0.0 | 0.2 | |||||||||
| 05:05 | 20.5 | 59.9 | 1019.7 | 5.4 | NNW | 7.8 | NNW | 0.0 | 0.5 | |||||||||
| Máxima | 22.3 | 63.0 | 1020.5 | 5.8 | NNW | 8.5 | N | 0.0 | 0.5 | |||||||||
| Mínima | 20 | 50.9 | 1019.7 | |||||||||||||||
| Total | 0.0 | |||||||||||||||||